Time;durP1;ratioP1;P1;durP2;ratioP2;P2;SDS_P1;SDS_P2;PMS_P1;PMS_P2;Temp;Humidity;BMP_temperature;BMP_pressure;BME280_temperature;BME280_humidity;BME280_pressure;Samples;Min_cycle;Max_cycle;Signal;HPM_P1;HPM_P2
2022/10/05 00:02:23;;;;;;;0.43;0.43;;;;;;;14.76;46.00;95995.88;5049906;28;20541;-67
2022/10/05 00:04:57;;;;;;;0.53;0.43;;;;;;;14.78;45.54;96004.31;5035847;28;20954;-67
2022/10/05 00:07:24;;;;;;;0.30;0.30;;;;;;;14.71;45.73;96003.75;5051111;28;20450;-67
2022/10/05 00:09:56;;;;;;;2.83;0.87;;;;;;;14.80;46.49;95996.94;5036550;28;20508;-68
2022/10/05 00:12:24;;;;;;;0.00;0.00;;;;;;;14.76;46.63;95995.88;5034740;28;20500;-68
2022/10/05 00:14:59;;;;;;;0.43;0.43;;;;;;;14.92;45.75;96002.84;5036635;28;20459;-68
2022/10/05 00:17:29;;;;;;;0.30;0.30;;;;;;;14.76;45.82;95993.22;5044627;28;20878;-67
2022/10/05 00:19:56;;;;;;;0.67;0.30;;;;;;;14.74;46.24;95992.72;5041666;28;20478;-67
2022/10/05 00:22:32;;;;;;;0.83;0.83;;;;;;;14.77;45.51;95986.13;5046958;28;20447;-67
2022/10/05 00:25:10;;;;;;;2.20;1.30;;;;;;;14.62;46.73;96005.28;5035218;28;20583;-69
2022/10/05 00:27:37;;;;;;;0.30;0.30;;;;;;;14.79;45.82;96000.66;5047395;28;20527;-67
2022/10/05 00:30:17;;;;;;;1.13;0.87;;;;;;;14.75;46.69;95994.28;5042380;28;20546;-67
2022/10/05 00:32:45;;;;;;;0.40;0.40;;;;;;;14.59;46.83;96000.50;5031099;28;20543;-66
2022/10/05 00:35:13;;;;;;;1.23;0.73;;;;;;;14.69;46.36;95995.28;5032738;28;20475;-67
2022/10/05 00:37:40;;;;;;;0.10;0.10;;;;;;;14.39;46.93;96000.38;5048497;28;20475;-67
2022/10/05 00:40:59;;;;;;;0.37;0.37;;;;;;;14.55;47.02;95998.63;5031418;28;20521;-68
2022/10/05 00:43:28;;;;;;;0.63;0.63;;;;;;;14.56;46.47;95995.72;5035887;28;20463;-67
2022/10/05 00:46:07;;;;;;;0.10;0.10;;;;;;;14.41;46.91;95998.28;5036317;28;20467;-67
2022/10/05 00:48:47;;;;;;;0.80;0.33;;;;;;;14.37;46.93;95985.84;5040419;28;20481;-67
2022/10/05 00:51:32;;;;;;;0.17;0.17;;;;;;;14.58;46.93;96004.19;5044647;28;20450;-67
2022/10/05 00:54:42;;;;;;;0.30;0.30;;;;;;;14.28;47.39;95996.06;5046142;28;20816;-68
2022/10/05 00:57:27;;;;;;;0.00;0.00;;;;;;;14.55;46.60;95998.63;5031291;28;20479;-67
2022/10/05 01:00:08;;;;;;;0.00;0.00;;;;;;;14.51;46.82;95997.53;5036481;28;20973;-67
2022/10/05 01:03:05;;;;;;;0.40;0.40;;;;;;;14.48;46.55;96004.13;5048905;28;20442;-66
2022/10/05 01:05:51;;;;;;;0.87;0.57;;;;;;;14.42;47.04;96014.88;5040817;28;21050;-66
2022/10/05 01:08:46;;;;;;;0.00;0.00;;;;;;;14.35;47.06;96016.91;5050447;28;20477;-66
2022/10/05 01:11:16;;;;;;;2.03;1.13;;;;;;;14.36;47.33;96026.44;5035706;28;20444;-66
2022/10/05 01:13:55;;;;;;;2.57;0.43;;;;;;;14.18;47.57;96027.56;5041945;28;20446;-68
2022/10/05 01:16:22;;;;;;;0.43;0.43;;;;;;;14.15;47.81;96020.16;5031004;28;20478;-68
2022/10/05 01:19:12;;;;;;;0.30;0.30;;;;;;;14.03;48.00;96022.16;5036910;28;20448;-67
2022/10/05 01:21:55;;;;;;;0.47;0.47;;;;;;;14.04;47.74;96007.94;5036812;28;20451;-67
2022/10/05 01:24:56;;;;;;;0.30;0.30;;;;;;;14.02;47.93;96025.81;5044223;28;20455;-66
2022/10/05 01:27:32;;;;;;;0.77;0.77;;;;;;;14.11;47.44;96037.50;5031183;28;20466;-67
2022/10/05 01:30:11;;;;;;;0.67;0.67;;;;;;;14.10;47.54;96028.78;5041279;28;20534;-67
2022/10/05 01:32:58;;;;;;;0.17;0.17;;;;;;;14.20;47.32;96033.38;5032142;28;20531;-67
2022/10/05 01:35:33;;;;;;;0.40;0.40;;;;;;;14.19;47.17;96048.41;5032000;28;20547;-66
2022/10/05 01:38:23;;;;;;;0.00;0.00;;;;;;;14.03;48.32;96051.16;5047627;28;20490;-68
2022/10/05 01:40:55;;;;;;;6.47;0.73;;;;;;;14.19;47.59;96047.63;5037608;28;20864;-67
2022/10/05 01:43:43;;;;;;;0.10;0.10;;;;;;;14.12;47.42;96054.94;5035969;28;20505;-66
2022/10/05 01:46:18;;;;;;;4.07;1.50;;;;;;;14.05;47.36;96067.53;5040291;28;20525;-67
2022/10/05 01:49:22;;;;;;;0.63;0.37;;;;;;;14.05;48.27;96064.88;5049635;28;20457;-68
2022/10/05 01:52:07;;;;;;;1.53;1.43;;;;;;;14.10;47.31;96076.25;5036043;28;20508;-67
2022/10/05 01:54:34;;;;;;;0.67;0.63;;;;;;;13.86;47.82;96068.88;5040498;28;20450;-66
2022/10/05 01:57:04;;;;;;;0.83;0.73;;;;;;;14.00;47.81;96070.06;5035843;28;20627;-68
2022/10/05 01:59:34;;;;;;;0.70;0.60;;;;;;;13.82;47.69;96075.69;5029007;28;20448;-68
2022/10/05 02:02:06;;;;;;;1.87;1.73;;;;;;;13.86;47.80;96068.88;5040621;28;20455;-67
2022/10/05 02:04:44;;;;;;;2.10;1.53;;;;;;;13.69;47.91;96073.41;5045209;28;20491;-68
2022/10/05 02:08:11;;;;;;;7.83;3.40;;;;;;;13.73;48.41;96071.88;5034017;28;20443;-67
2022/10/05 02:10:50;;;;;;;0.67;0.67;;;;;;;13.74;48.23;96078.75;5033880;28;20459;-67
2022/10/05 02:13:31;;;;;;;0.87;0.67;;;;;;;13.77;48.40;96080.91;5029636;28;20451;-67
2022/10/05 02:16:03;;;;;;;0.00;0.00;;;;;;;13.15;49.58;96083.81;5040907;28;20450;-67
2022/10/05 02:18:39;;;;;;;4.27;2.63;;;;;;;13.10;49.76;96086.34;5028586;28;20484;-68
2022/10/05 02:21:07;;;;;;;0.67;0.67;;;;;;;12.94;50.25;96071.34;5035119;28;20525;-67
2022/10/05 02:23:38;;;;;;;0.87;0.87;;;;;;;13.13;49.84;96080.63;5048217;28;20534;-68
2022/10/05 02:26:10;;;;;;;0.10;0.10;;;;;;;12.77;51.23;96086.34;5041745;28;20453;-68
2022/10/05 02:28:45;;;;;;;3.37;1.80;;;;;;;13.11;50.07;96082.69;5028514;28;20467;-68
2022/10/05 02:31:24;;;;;;;0.00;0.00;;;;;;;13.31;49.19;96089.25;5032240;28;20479;-67
2022/10/05 02:33:51;;;;;;;1.90;1.63;;;;;;;13.43;48.95;96087.31;5040962;28;20463;-67
2022/10/05 02:36:28;;;;;;;0.57;0.57;;;;;;;13.55;48.83;96088.00;5040041;28;20443;-67
2022/10/05 02:38:59;;;;;;;1.30;1.17;;;;;;;13.33;48.50;96087.19;5052623;28;21004;-67
2022/10/05 02:41:52;;;;;;;0.30;0.30;;;;;;;13.46;48.76;96089.47;5029226;28;20473;-67
2022/10/05 02:44:36;;;;;;;0.30;0.30;;;;;;;13.54;48.34;96086.41;5033314;28;20517;-68
2022/10/05 02:47:26;;;;;;;2.10;1.33;;;;;;;13.50;48.54;96085.31;5038187;28;20789;-68
2022/10/05 02:50:13;;;;;;;1.10;1.10;;;;;;;13.48;48.08;96087.38;5028307;28;20538;-68
2022/10/05 02:52:56;;;;;;;0.00;0.00;;;;;;;13.43;48.91;96085.47;5041793;28;20504;-67
2022/10/05 02:55:43;;;;;;;1.43;1.33;;;;;;;13.45;47.96;96088.66;5041149;28;20451;-66
2022/10/05 02:58:17;;;;;;;1.30;0.87;;;;;;;13.30;48.68;96075.31;5031505;28;20535;-67
2022/10/05 03:01:02;;;;;;;2.27;1.90;;;;;;;13.33;48.55;96093.25;5029022;28;20452;-66
2022/10/05 03:03:41;;;;;;;0.63;0.63;;;;;;;13.35;48.23;96087.75;5031510;28;20465;-67
2022/10/05 03:06:27;;;;;;;4.00;0.93;;;;;;;13.30;48.41;96095.56;5039232;28;20816;-67
2022/10/05 03:09:00;;;;;;;0.43;0.43;;;;;;;13.23;48.90;96106.25;5033805;28;20453;-68
2022/10/05 03:11:42;;;;;;;0.87;0.87;;;;;;;13.32;48.31;96101.41;5042909;28;20440;-68
2022/10/05 03:14:21;;;;;;;0.20;0.20;;;;;;;13.40;48.33;96100.97;5042982;28;20484;-67
2022/10/05 03:17:17;;;;;;;0.27;0.27;;;;;;;13.18;49.13;96103.56;5032975;28;20861;-67
2022/10/05 03:19:49;;;;;;;0.30;0.30;;;;;;;13.11;49.05;96103.75;5035610;28;20447;-67
2022/10/05 03:22:35;;;;;;;3.80;0.77;;;;;;;13.18;48.69;96107.00;5038028;28;21078;-66
2022/10/05 03:25:39;;;;;;;0.20;0.20;;;;;;;13.04;48.45;96102.31;5046972;28;20866;-68
2022/10/05 03:28:17;;;;;;;0.50;0.40;;;;;;;13.08;48.71;96108.69;5040943;28;20451;-67
2022/10/05 03:31:01;;;;;;;0.63;0.63;;;;;;;13.07;49.04;96105.25;5032539;28;20475;-67
2022/10/05 03:34:10;;;;;;;1.00;0.87;;;;;;;13.13;48.63;96117.47;5033576;28;20539;-66
2022/10/05 03:36:52;;;;;;;0.20;0.20;;;;;;;13.12;48.97;96120.31;5031503;28;20477;-67
2022/10/05 03:39:30;;;;;;;2.87;2.17;;;;;;;13.07;48.42;96123.69;5031774;28;20538;-67
2022/10/05 03:42:13;;;;;;;1.83;0.77;;;;;;;12.97;49.01;96123.47;5039403;28;20450;-67
2022/10/05 03:44:43;;;;;;;0.20;0.20;;;;;;;13.09;48.61;96131.31;5040836;28;20985;-68
2022/10/05 03:47:36;;;;;;;1.00;0.77;;;;;;;13.21;48.27;96135.47;5043652;28;21027;-68
2022/10/05 03:50:24;;;;;;;1.67;1.53;;;;;;;13.02;49.50;96136.75;5040317;28;20545;-68
2022/10/05 03:52:59;;;;;;;1.27;1.17;;;;;;;13.00;49.84;96149.34;5041809;28;20989;-67
2022/10/05 03:55:38;;;;;;;1.97;1.73;;;;;;;13.02;49.48;96147.28;5030091;28;20785;-67
2022/10/05 03:58:14;;;;;;;1.13;0.90;;;;;;;13.03;49.62;96156.75;5043196;28;20487;-68
2022/10/05 04:00:46;;;;;;;0.40;0.40;;;;;;;12.92;49.84;96160.25;5043777;28;20487;-68
2022/10/05 04:03:24;;;;;;;0.70;0.70;;;;;;;13.12;49.52;96162.41;5042289;28;20476;-69
2022/10/05 04:06:01;;;;;;;2.53;1.30;;;;;;;12.91;49.00;96145.50;5039706;28;20447;-70
2022/10/05 04:08:59;;;;;;;3.00;2.10;;;;;;;13.11;48.85;96151.13;5047249;28;20450;-67
2022/10/05 04:11:36;;;;;;;4.07;2.70;;;;;;;13.05;49.10;96161.78;5031799;28;20456;-68
2022/10/05 04:14:21;;;;;;;0.83;0.37;;;;;;;13.23;48.84;96152.88;5034639;28;20564;-69
2022/10/05 04:16:56;;;;;;;1.23;1.17;;;;;;;12.73;48.87;96161.53;5060133;28;20448;-68
2022/10/05 04:19:31;;;;;;;1.37;1.13;;;;;;;12.94;48.65;96170.53;5043789;28;20458;-69
2022/10/05 04:22:02;;;;;;;4.10;3.07;;;;;;;12.57;48.91;96164.13;5043829;28;21092;-67
2022/10/05 04:24:38;;;;;;;1.90;1.53;;;;;;;12.66;48.85;96163.50;5049329;28;20447;-68
2022/10/05 04:27:16;;;;;;;2.63;1.97;;;;;;;12.73;48.72;96169.41;5036609;28;20961;-68
2022/10/05 04:30:01;;;;;;;2.17;0.90;;;;;;;12.45;49.19;96172.06;5031329;28;20539;-68
2022/10/05 04:32:37;;;;;;;1.70;1.30;;;;;;;12.44;49.63;96164.41;5030516;28;20889;-68
2022/10/05 04:35:30;;;;;;;0.50;0.50;;;;;;;12.45;49.46;96172.06;5040836;28;20466;-68
2022/10/05 04:38:21;;;;;;;2.43;1.80;;;;;;;12.49;50.32;96173.19;5046597;28;20541;-67
2022/10/05 04:41:23;;;;;;;0.77;0.67;;;;;;;12.48;50.09;96176.06;5033780;28;20458;-68
2022/10/05 04:44:00;;;;;;;0.87;0.87;;;;;;;12.38;50.51;96181.91;5034682;28;21062;-68
2022/10/05 04:47:04;;;;;;;0.83;0.80;;;;;;;12.65;50.36;96187.38;5029335;28;20439;-67
2022/10/05 04:49:50;;;;;;;0.40;0.40;;;;;;;12.85;49.83;96195.63;5029474;28;20440;-68
2022/10/05 04:52:29;;;;;;;1.27;1.27;;;;;;;13.13;49.44;96191.16;5029870;28;20439;-69
2022/10/05 04:55:23;;;;;;;9.13;6.40;;;;;;;13.25;49.88;96192.91;5042129;28;20434;-69
2022/10/05 04:58:01;;;;;;;4.77;4.33;;;;;;;13.04;50.92;96202.31;5039489;28;20483;-68
2022/10/05 05:00:37;;;;;;;0.53;0.53;;;;;;;13.06;50.95;96193.13;5030330;28;20527;-69
2022/10/05 05:03:25;;;;;;;0.97;0.97;;;;;;;13.06;50.78;96197.59;5029364;28;20447;-68
2022/10/05 05:06:08;;;;;;;0.10;0.10;;;;;;;13.45;49.56;96187.94;5034883;28;20444;-69
2022/10/05 05:08:57;;;;;;;0.00;0.00;;;;;;;13.68;49.56;96199.06;5035056;28;20539;-68
2022/10/05 05:12:02;;;;;;;1.03;0.80;;;;;;;13.78;49.11;96191.28;5050614;28;20518;-68
2022/10/05 05:14:46;;;;;;;0.20;0.20;;;;;;;13.65;49.59;96193.50;5033003;28;20489;-69
2022/10/05 05:17:31;;;;;;;3.20;1.90;;;;;;;13.76;48.99;96195.19;5030020;28;20533;-69
2022/10/05 05:20:18;;;;;;;0.10;0.10;;;;;;;13.81;48.56;96195.28;5039051;28;20448;-69
2022/10/05 05:23:04;;;;;;;6.67;6.07;;;;;;;13.89;48.89;96198.28;5033442;28;20443;-68
2022/10/05 05:25:49;;;;;;;2.63;2.43;;;;;;;13.70;49.35;96206.72;5034589;28;20475;-68
2022/10/05 05:28:33;;;;;;;2.17;1.10;;;;;;;13.56;49.71;96205.47;5036596;28;20454;-69
2022/10/05 05:31:26;;;;;;;0.77;0.77;;;;;;;13.49;49.70;96199.56;5035758;28;20498;-67
2022/10/05 05:34:45;;;;;;;0.63;0.57;;;;;;;13.82;49.28;96202.13;5045444;28;20448;-68
2022/10/05 05:37:36;;;;;;;0.90;0.90;;;;;;;13.00;50.89;96211.69;5038396;28;20998;-68
2022/10/05 05:40:15;;;;;;;0.67;0.67;;;;;;;13.70;50.03;96206.72;5037140;28;20458;-68
2022/10/05 05:42:50;;;;;;;1.73;1.57;;;;;;;14.06;48.80;96214.06;5036601;28;20445;-69
2022/10/05 05:45:41;;;;;;;0.40;0.40;;;;;;;14.22;48.87;96210.56;5049509;28;21024;-67
2022/10/05 05:48:41;;;;;;;0.10;0.10;;;;;;;14.40;47.99;96223.47;5028092;28;20985;-70
2022/10/05 05:51:18;;;;;;;0.20;0.20;;;;;;;14.46;48.39;96222.47;5037512;28;20539;-69
2022/10/05 05:53:49;;;;;;;0.10;0.10;;;;;;;14.52;48.89;96216.22;5041989;28;20442;-67
2022/10/05 05:56:24;;;;;;;0.20;0.20;;;;;;;14.60;48.25;96214.97;5028538;28;20970;-69
2022/10/05 05:58:58;;;;;;;0.10;0.10;;;;;;;14.65;47.88;96222.94;5047943;28;20552;-67
2022/10/05 06:01:46;;;;;;;0.30;0.30;;;;;;;14.68;47.98;96228.53;5039361;28;20483;-67
2022/10/05 06:04:20;;;;;;;0.73;0.73;;;;;;;14.55;48.61;96230.75;5029860;28;20466;-67
2022/10/05 06:06:51;;;;;;;1.00;1.00;;;;;;;14.69;47.91;96222.19;5028631;28;20435;-67
2022/10/05 06:09:32;;;;;;;4.13;2.40;;;;;;;14.77;48.28;96234.16;5028953;28;20466;-68
2022/10/05 06:12:53;;;;;;;0.63;0.63;;;;;;;14.79;47.79;96221.50;5033513;28;20501;-67
2022/10/05 06:15:39;;;;;;;0.10;0.10;;;;;;;14.90;47.69;96239.84;5048096;28;20474;-68
2022/10/05 06:18:17;;;;;;;0.50;0.50;;;;;;;14.98;47.65;96231.44;5050271;28;20549;-67
2022/10/05 06:20:53;;;;;;;4.17;1.13;;;;;;;15.19;47.69;96238.53;5051465;28;20458;-69
2022/10/05 06:23:34;;;;;;;2.93;1.87;;;;;;;15.11;47.32;96252.16;5047638;28;20531;-67
2022/10/05 06:26:27;;;;;;;0.97;0.87;;;;;;;15.20;47.13;96255.13;5030243;28;20432;-68
2022/10/05 06:29:07;;;;;;;0.20;0.20;;;;;;;15.07;47.56;96261.63;5021312;28;20439;-69
2022/10/05 06:32:01;;;;;;;1.33;1.23;;;;;;;15.33;47.37;96254.72;5035624;28;20456;-68
2022/10/05 06:34:38;;;;;;;1.50;1.40;;;;;;;15.42;47.61;96258.53;5030373;28;20478;-67
2022/10/05 06:37:37;;;;;;;1.17;1.07;;;;;;;15.22;47.31;96264.41;5038624;28;20946;-68
2022/10/05 06:40:17;;;;;;;0.93;0.93;;;;;;;15.40;46.80;96265.88;5035902;28;20447;-69
2022/10/05 06:43:16;;;;;;;3.60;2.30;;;;;;;15.38;46.87;96269.84;5027917;28;20471;-68
2022/10/05 06:46:18;;;;;;;3.30;1.43;;;;;;;15.34;47.19;96272.19;5032418;28;20827;-68
2022/10/05 06:49:28;;;;;;;0.40;0.40;;;;;;;15.41;46.61;96272.78;5043617;28;20939;-67
2022/10/05 06:52:45;;;;;;;4.00;1.77;;;;;;;15.35;47.44;96291.44;5054436;28;20441;-68
2022/10/05 06:55:21;;;;;;;0.70;0.70;;;;;;;15.27;47.53;96293.50;5031720;28;20440;-69
2022/10/05 06:57:54;;;;;;;1.13;1.13;;;;;;;15.44;46.92;96295.28;5027674;28;20467;-68
2022/10/05 07:00:28;;;;;;;0.33;0.33;;;;;;;15.34;47.73;96292.50;5041711;28;20838;-67
2022/10/05 07:03:14;;;;;;;1.07;0.87;;;;;;;15.62;47.64;96294.91;5028896;28;20447;-68
2022/10/05 07:05:44;;;;;;;1.33;1.23;;;;;;;15.81;45.98;96277.59;5033029;28;20473;-68
2022/10/05 07:08:37;;;;;;;3.73;2.87;;;;;;;15.78;46.85;96283.38;5036747;28;20820;-68
2022/10/05 07:11:18;;;;;;;2.17;1.30;;;;;;;15.72;47.69;96279.09;5029115;28;21009;-68
2022/10/05 07:14:07;;;;;;;1.43;1.33;;;;;;;15.88;47.11;96273.66;5043654;28;20874;-69
2022/10/05 07:16:57;;;;;;;0.40;0.40;;;;;;;15.99;46.80;96269.22;5037847;28;20468;-68
2022/10/05 07:19:54;;;;;;;1.00;1.00;;;;;;;16.26;46.51;96269.13;5030416;28;20611;-68
2022/10/05 07:22:33;;;;;;;0.53;0.53;;;;;;;16.24;46.21;96272.00;5029630;28;20481;-68
2022/10/05 07:25:07;;;;;;;0.53;0.53;;;;;;;16.44;46.00;96277.41;5037630;28;20939;-67
2022/10/05 07:27:59;;;;;;;1.20;1.13;;;;;;;16.24;46.69;96278.09;5012934;28;21006;-67
2022/10/05 07:30:28;;;;;;;0.20;0.20;;;;;;;16.47;46.13;96266.34;5036139;28;20448;-68
2022/10/05 07:33:00;;;;;;;0.20;0.20;;;;;;;16.58;45.93;96267.97;5042875;28;20531;-68
2022/10/05 07:38:29;;;;;;;0.43;0.43;;;;;;;16.86;45.34;96264.88;5035043;28;20482;-66
2022/10/05 07:41:14;;;;;;;4.30;1.23;;;;;;;16.82;45.68;96258.50;5042643;28;20462;-68
2022/10/05 07:44:04;;;;;;;1.17;1.17;;;;;;;16.99;45.50;96268.88;5027105;28;20857;-68
2022/10/05 07:46:53;;;;;;;0.90;0.90;;;;;;;17.18;45.02;96273.44;5038317;28;20965;-68
2022/10/05 07:49:27;;;;;;;0.80;0.67;;;;;;;16.99;45.21;96259.09;5050357;28;20431;-67
2022/10/05 07:51:59;;;;;;;0.33;0.33;;;;;;;17.23;45.00;96270.78;5038170;28;21543;-68
2022/10/05 07:54:37;;;;;;;0.60;0.60;;;;;;;17.48;44.63;96261.28;5041529;28;20440;-68
2022/10/05 07:57:18;;;;;;;0.67;0.67;;;;;;;17.31;44.10;96260.72;5049370;28;20501;-68
2022/10/05 08:00:00;;;;;;;0.40;0.40;;;;;;;17.61;44.22;96263.41;5039385;28;21041;-70
2022/10/05 08:02:40;;;;;;;0.20;0.20;;;;;;;17.77;43.77;96272.94;5046368;28;20475;-69
2022/10/05 08:05:14;;;;;;;2.73;1.47;;;;;;;17.90;43.88;96267.09;5045630;28;20533;-67
2022/10/05 08:07:41;;;;;;;0.93;0.93;;;;;;;17.95;44.14;96267.09;5039117;28;20450;-68
2022/10/05 08:10:40;;;;;;;0.93;0.63;;;;;;;18.26;43.18;96273.91;5039389;28;20827;-68
2022/10/05 08:13:23;;;;;;;0.20;0.20;;;;;;;18.52;42.80;96280.75;5031421;28;20456;-68
2022/10/05 08:15:56;;;;;;;1.23;0.67;;;;;;;18.26;42.89;96273.91;5049621;28;20801;-68
2022/10/05 08:18:49;;;;;;;0.70;0.70;;;;;;;18.62;42.40;96275.41;5023096;28;20956;-68
2022/10/05 08:21:21;;;;;;;0.63;0.63;;;;;;;18.62;42.18;96272.75;5031995;28;20498;-67
2022/10/05 08:24:29;;;;;;;0.53;0.53;;;;;;;18.83;41.98;96274.22;5031888;28;20451;-68
2022/10/05 08:27:19;;;;;;;38.73;1.63;;;;;;;18.85;41.17;96280.06;5030982;28;20969;-67
2022/10/05 08:30:03;;;;;;;0.10;0.10;;;;;;;18.97;42.48;96280.56;5038849;28;20454;-67
2022/10/05 08:32:50;;;;;;;0.50;0.40;;;;;;;19.33;42.08;96273.16;5051891;28;20441;-68
2022/10/05 08:35:32;;;;;;;0.27;0.27;;;;;;;19.30;41.70;96280.88;5031841;28;20486;-67
2022/10/05 08:38:03;;;;;;;0.70;0.70;;;;;;;19.15;40.58;96279.91;5049777;28;20442;-68
2022/10/05 08:40:49;;;;;;;1.33;1.10;;;;;;;18.88;39.28;96276.88;5048913;28;20442;-67
2022/10/05 08:43:53;;;;;;;0.10;0.10;;;;;;;19.30;37.77;96278.22;5031543;28;20992;-68
2022/10/05 08:46:48;;;;;;;0.70;0.43;;;;;;;19.72;37.85;96265.97;5039717;28;20584;-68
2022/10/05 08:49:35;;;;;;;0.10;0.10;;;;;;;19.84;37.84;96257.59;5051252;28;20447;-68
2022/10/05 08:52:19;;;;;;;0.10;0.10;;;;;;;19.95;38.05;96254.56;5037067;28;20999;-68
2022/10/05 08:54:58;;;;;;;2.20;0.47;;;;;;;20.11;37.77;96258.66;5051060;28;20447;-68
2022/10/05 08:57:45;;;;;;;0.57;0.57;;;;;;;20.33;37.80;96255.53;5031422;28;20505;-68
2022/10/05 09:00:44;;;;;;;0.37;0.37;;;;;;;20.55;37.26;96253.13;5031296;28;20443;-67
2022/10/05 09:03:24;;;;;;;0.30;0.30;;;;;;;20.37;35.30;96251.22;5040270;28;20509;-68
2022/10/05 09:06:20;;;;;;;0.10;0.10;;;;;;;20.75;36.04;96258.22;5050983;28;20522;-67
2022/10/05 09:09:02;;;;;;;0.00;0.00;;;;;;;20.79;35.00;96266.41;5045811;28;20886;-68
2022/10/05 09:11:34;;;;;;;0.63;0.30;;;;;;;20.84;35.34;96251.16;5041946;28;20443;-67
2022/10/05 09:14:20;;;;;;;0.37;0.37;;;;;;;20.55;33.78;96258.47;5044525;28;20450;-68
2022/10/05 09:16:57;;;;;;;0.00;0.00;;;;;;;21.49;33.82;96254.00;5042094;28;20492;-68
2022/10/05 09:19:52;;;;;;;0.40;0.20;;;;;;;21.51;33.74;96259.81;5031339;28;20489;-68
2022/10/05 09:22:29;;;;;;;0.17;0.17;;;;;;;21.63;32.50;96260.94;5046065;28;20439;-68
2022/10/05 09:25:02;;;;;;;0.10;0.10;;;;;;;21.26;33.38;96241.56;5050693;28;20446;-69
2022/10/05 09:27:36;;;;;;;0.20;0.20;;;;;;;21.53;32.93;96260.34;5036373;28;20476;-68
2022/10/05 09:30:20;;;;;;;0.10;0.10;;;;;;;21.55;31.96;96256.28;5050553;28;20445;-67
2022/10/05 09:33:02;;;;;;;0.13;0.13;;;;;;;22.10;32.52;96255.34;5050123;28;21162;-68
2022/10/05 09:36:11;;;;;;;0.23;0.23;;;;;;;22.06;32.00;96245.59;5050076;28;20435;-68
2022/10/05 09:39:06;;;;;;;0.17;0.17;;;;;;;22.06;32.15;96257.03;5050204;28;20510;-67
2022/10/05 09:42:24;;;;;;;0.10;0.10;;;;;;;21.88;31.91;96254.41;5031392;28;20444;-66
2022/10/05 09:45:13;;;;;;;0.10;0.10;;;;;;;22.42;32.01;96251.84;5050098;28;21075;-68
2022/10/05 09:48:31;;;;;;;0.10;0.10;;;;;;;22.46;32.33;96250.16;5037093;28;20446;-67
2022/10/05 09:51:00;;;;;;;0.10;0.10;;;;;;;22.08;30.65;96256.72;5041246;28;20946;-68
2022/10/05 09:54:02;;;;;;;0.10;0.10;;;;;;;22.43;30.58;96256.06;5031911;28;20472;-68
2022/10/05 09:56:48;;;;;;;0.10;0.10;;;;;;;22.78;30.77;96258.06;5037492;28;21088;-70
2022/10/05 09:59:46;;;;;;;0.10;0.10;;;;;;;23.16;30.90;96247.09;5030142;28;20481;-69
2022/10/05 10:02:23;;;;;;;0.40;0.40;;;;;;;22.76;29.77;96254.09;5033761;28;20446;-69
2022/10/05 10:05:24;;;;;;;1.30;0.73;;;;;;;22.54;29.96;96245.97;5048496;28;20457;-68
2022/10/05 10:08:04;;;;;;;0.10;0.10;;;;;;;22.66;29.63;96249.75;5049734;28;20520;-69
2022/10/05 10:11:08;;;;;;;0.20;0.20;;;;;;;22.88;31.01;96254.41;5035763;28;20521;-68
2022/10/05 10:13:41;;;;;;;1.13;0.73;;;;;;;22.91;29.78;96246.56;5049774;28;21141;-68
2022/10/05 10:16:42;;;;;;;0.10;0.10;;;;;;;23.19;29.68;96251.84;5043268;28;21073;-69
2022/10/05 10:19:17;;;;;;;0.10;0.10;;;;;;;23.10;30.06;96239.19;5029255;28;20496;-67
2022/10/05 10:22:10;;;;;;;0.03;0.03;;;;;;;22.74;30.26;96246.38;5029704;28;20450;-69
2022/10/05 10:24:54;;;;;;;0.10;0.10;;;;;;;23.12;30.51;96247.69;5035824;28;20443;-70
2022/10/05 10:27:53;;;;;;;0.10;0.10;;;;;;;23.62;29.50;96247.63;5034524;28;20335;-69
2022/10/05 10:30:55;;;;;;;0.43;0.43;;;;;;;23.49;29.74;96243.13;5040458;28;21068;-68
2022/10/05 10:33:54;;;;;;;0.20;0.20;;;;;;;23.56;29.23;96240.81;5029406;28;20815;-68
2022/10/05 10:36:50;;;;;;;1.13;1.03;;;;;;;22.98;28.76;96236.25;5042044;28;20686;-70
2022/10/05 10:39:30;;;;;;;0.07;0.07;;;;;;;23.03;30.17;96230.78;5045044;28;21068;-69
2022/10/05 10:42:09;;;;;;;0.50;0.40;;;;;;;22.84;29.80;96232.81;5036586;28;20452;-68
2022/10/05 10:44:57;;;;;;;0.10;0.10;;;;;;;23.49;29.78;96229.75;5049854;28;20466;-69
2022/10/05 10:47:38;;;;;;;0.40;0.40;;;;;;;23.61;29.78;96216.63;5033452;28;20550;-68
2022/10/05 10:50:35;;;;;;;0.70;0.70;;;;;;;23.83;29.22;96213.94;5047512;28;20556;-69
2022/10/05 10:53:17;;;;;;;0.63;0.63;;;;;;;23.89;29.77;96212.69;5029167;28;20197;-69
2022/10/05 10:55:57;;;;;;;0.20;0.20;;;;;;;23.42;28.51;96210.66;5034273;28;20204;-69
2022/10/05 10:58:48;;;;;;;0.30;0.30;;;;;;;22.99;27.95;96211.09;5048714;28;20481;-70
2022/10/05 11:01:28;;;;;;;0.50;0.50;;;;;;;22.33;28.75;96210.88;5038722;28;20239;-70
2022/10/05 11:04:07;;;;;;;0.10;0.10;;;;;;;22.20;29.41;96209.00;5034746;28;20451;-69
2022/10/05 11:07:01;;;;;;;0.10;0.10;;;;;;;22.61;28.62;96193.75;5049043;28;20472;-69
2022/10/05 11:09:44;;;;;;;0.00;0.00;;;;;;;22.88;29.06;96183.00;5036013;28;20450;-69
2022/10/05 11:12:32;;;;;;;0.40;0.40;;;;;;;23.03;27.92;96185.34;5033040;28;20442;-68
2022/10/05 11:15:21;;;;;;;0.10;0.10;;;;;;;23.10;28.57;96175.00;5028896;28;20497;-68
2022/10/05 11:18:04;;;;;;;0.10;0.10;;;;;;;23.22;26.87;96176.34;5034718;28;20473;-71
2022/10/05 11:20:49;;;;;;;0.10;0.10;;;;;;;23.37;26.28;96176.81;5034689;28;20941;-68
2022/10/05 11:23:16;;;;;;;0.53;0.53;;;;;;;23.15;26.54;96160.75;5050470;28;20965;-69
2022/10/05 11:25:48;;;;;;;0.47;0.40;;;;;;;23.79;27.16;96167.44;5038768;28;20545;-70
2022/10/05 11:28:26;;;;;;;0.83;0.83;;;;;;;24.13;27.81;96170.28;5052641;28;20536;-68
2022/10/05 11:31:29;;;;;;;0.10;0.10;;;;;;;24.50;26.12;96175.13;5038596;28;20542;-68
2022/10/05 11:34:02;;;;;;;0.20;0.20;;;;;;;24.64;26.15;96170.44;5039901;28;20597;-70
2022/10/05 11:36:38;;;;;;;0.10;0.10;;;;;;;25.06;25.29;96167.03;5037937;28;20193;-68
2022/10/05 11:39:41;;;;;;;0.20;0.20;;;;;;;24.91;24.52;96159.44;5052364;28;20230;-69
2022/10/05 11:42:29;;;;;;;31.10;1.20;;;;;;;25.51;25.17;96151.34;5040383;28;20212;-69
2022/10/05 11:45:20;;;;;;;0.20;0.20;;;;;;;25.63;23.91;96148.81;5052266;28;20244;-68
2022/10/05 11:47:59;;;;;;;0.20;0.20;;;;;;;26.18;24.82;96148.78;5032338;28;20308;-69
2022/10/05 11:50:32;;;;;;;0.17;0.17;;;;;;;26.31;25.04;96145.09;5042052;28;20203;-72
2022/10/05 11:53:07;;;;;;;0.13;0.13;;;;;;;26.61;24.39;96127.81;5043937;28;20288;-70
2022/10/05 11:55:41;;;;;;;0.60;0.60;;;;;;;26.89;24.56;96145.06;5038492;28;20227;-69
2022/10/05 11:58:19;;;;;;;0.20;0.20;;;;;;;27.04;24.38;96139.06;5052245;28;20206;-69
2022/10/05 12:00:55;;;;;;;1.60;0.50;;;;;;;26.62;22.84;96132.06;5037856;28;20710;-69
2022/10/05 12:03:49;;;;;;;0.10;0.10;;;;;;;26.17;23.11;96123.03;5049633;28;20204;-69
2022/10/05 12:06:54;;;;;;;0.10;0.10;;;;;;;26.85;24.06;96125.31;5033541;28;20184;-69
2022/10/05 12:10:13;;;;;;;1.87;0.93;;;;;;;27.36;23.46;96128.66;5042825;28;20287;-69
2022/10/05 12:13:03;;;;;;;0.10;0.10;;;;;;;27.03;23.66;96126.72;5041110;28;20721;-69
2022/10/05 12:15:36;;;;;;;0.10;0.10;;;;;;;26.23;22.88;96124.41;5034514;28;20197;-68
2022/10/05 12:18:16;;;;;;;0.10;0.10;;;;;;;25.42;24.48;96125.66;5040269;28;20201;-70
2022/10/05 12:21:15;;;;;;;0.10;0.10;;;;;;;26.61;23.23;96133.19;5034715;28;20256;-70
2022/10/05 12:23:52;;;;;;;0.10;0.10;;;;;;;27.03;23.26;96121.34;5031695;28;20373;-69
2022/10/05 12:26:29;;;;;;;0.10;0.10;;;;;;;27.71;23.07;96119.09;5042939;28;20834;-70
2022/10/05 12:29:22;;;;;;;0.67;0.67;;;;;;;28.16;22.88;96124.44;5043145;28;20656;-68
2022/10/05 12:32:02;;;;;;;0.30;0.30;;;;;;;28.47;22.16;96109.25;5029266;28;20209;-70
2022/10/05 12:34:47;;;;;;;0.10;0.10;;;;;;;28.57;22.05;96119.63;5029805;28;20220;-70
2022/10/05 12:37:47;;;;;;;0.10;0.10;;;;;;;28.12;22.18;96124.31;5043906;28;20256;-69
2022/10/05 12:40:45;;;;;;;0.10;0.10;;;;;;;27.80;21.73;96117.09;5044444;28;20220;-68
2022/10/05 12:44:02;;;;;;;0.20;0.20;;;;;;;27.97;21.98;96123.09;5041262;28;20656;-70
2022/10/05 12:46:43;;;;;;;0.10;0.10;;;;;;;28.03;20.39;96120.97;5048739;28;20205;-69
2022/10/05 12:49:49;;;;;;;0.13;0.13;;;;;;;28.37;21.38;96120.53;5032392;28;20201;-69
2022/10/05 12:52:25;;;;;;;0.10;0.10;;;;;;;28.86;20.82;96123.94;5036106;28;20210;-70
2022/10/05 12:55:02;;;;;;;0.43;0.43;;;;;;;29.06;20.48;96119.47;5052347;28;20200;-69
2022/10/05 12:57:52;;;;;;;0.20;0.20;;;;;;;28.98;20.77;96119.28;5034740;28;20626;-71